Overview Statistics Trail Chart Weather Telemetry Raw packets
 

This is the latest recevied weather packets stored in our database for station/object KB4RFE. If no packets are shown the sender has not sent any weather packets the latest 10 day(s).

<< 101 102 103 104 105 106 107 >>
Time Temp. Humidity Pressure Rain* Wind** Luminosity Snow
1787869085 25.56° C 95% 1017.3 hPa 0 mm - 18 W/m² -
1787868783 25.56° C 97% 1017.3 hPa 0 mm - 21 W/m² -
1787868483 25.56° C 97% 1017.2 hPa 0 mm - 25 W/m² -
1787868182 25.56° C 98% 1017 hPa 0.51 mm - 30 W/m² -
1787867877 25.56° C 98% 1017.1 hPa 0.51 mm - 37 W/m² -
1787867573 25° C 98% 1016.8 hPa 0 mm - 48 W/m² -
1787867272 25° C 97% 1017.1 hPa 0 mm - 58 W/m² -
1787866969 25° C 97% 1017.4 hPa 0 mm - 71 W/m² -
1787866664 25° C 97% 1017.3 hPa 0 mm - 73 W/m² -
1787866362 24.44° C 97% 1017.5 hPa 0 mm - 73 W/m² -
1787866057 24.44° C 97% 1017.6 hPa 0 mm - 44 W/m² -
1787865752 24.44° C 97% 1017.5 hPa 0.51 mm - 30 W/m² -
1787865448 24.44° C 97% 1017.7 hPa 0.51 mm - 30 W/m² -
1787865148 23.89° C 97% 1017.2 hPa 0.51 mm - 41 W/m² -
1787864847 23.89° C 97% 1017.4 hPa 1.27 mm - 53 W/m² -
1787864544 23.89° C 97% 1017.4 hPa 3.05 mm - 67 W/m² -
1787864239 23.89° C 96% 1017.4 hPa 3.05 mm - 76 W/m² -
1787863934 23.89° C 96% 1017.7 hPa 1.78 mm - 89 W/m² -
1787863632 23.89° C 96% 1017.7 hPa 8.38 mm - 82 W/m² -
1787863326 23.89° C 97% 1017.6 hPa 17.53 mm - 86 W/m² -
1787863022 23.89° C 96% 1017.4 hPa 27.69 mm - 114 W/m² -
1787862717 23.33° C 96% 1017.4 hPa 32.51 mm - 154 W/m² -
1787862412 23.33° C 96% 1017.8 hPa 29.46 mm - 111 W/m² -
1787862107 23.33° C 96% 1018 hPa 21.08 mm - 91 W/m² -
1787861807 23.33° C 96% 1018.3 hPa 18.54 mm - 69 W/m² -

* Rain latest hour (hover to see other rain measurements)
** Current wind speed in m/s (hover to see current wind gust speed)